sensor_id;sensor_type;location;lat;lon;timestamp;pressure;altitude;pressure_sealevel;temperature;humidity
51229;BME280;37304;52.216;6.874;2023-04-29T00:00:09;101003.38;;;9.80;100.00
51229;BME280;37304;52.216;6.874;2023-04-29T00:05:10;100997.28;;;9.81;100.00
51229;BME280;37304;52.216;6.874;2023-04-29T00:10:10;101009.47;;;9.75;100.00
51229;BME280;37304;52.216;6.874;2023-04-29T00:15:13;101006.97;;;9.66;100.00
51229;BME280;37304;52.216;6.874;2023-04-29T00:20:14;101008.72;;;9.66;100.00
51229;BME280;37304;52.216;6.874;2023-04-29T00:25:15;101017.44;;;9.55;100.00
51229;BME280;37304;52.216;6.874;2023-04-29T00:30:16;101012.25;;;9.57;100.00
51229;BME280;37304;52.216;6.874;2023-04-29T00:35:16;101027.88;;;9.51;100.00
51229;BME280;37304;52.216;6.874;2023-04-29T00:40:17;101038.22;;;9.52;100.00
51229;BME280;37304;52.216;6.874;2023-04-29T00:45:17;101033.09;;;9.46;100.00
51229;BME280;37304;52.216;6.874;2023-04-29T00:50:18;101042.56;;;9.50;100.00
51229;BME280;37304;52.216;6.874;2023-04-29T00:55:18;101050.41;;;9.44;100.00
51229;BME280;37304;52.216;6.874;2023-04-29T01:00:19;101052.19;;;9.40;100.00
51229;BME280;37304;52.216;6.874;2023-04-29T01:05:19;101059.91;;;9.46;100.00
51229;BME280;37304;52.216;6.874;2023-04-29T01:10:28;101065.97;;;9.44;100.00
51229;BME280;37304;52.216;6.874;2023-04-29T01:15:38;101069.41;;;9.46;100.00
51229;BME280;37304;52.216;6.874;2023-04-29T01:20:42;101079.78;;;9.51;100.00
51229;BME280;37304;52.216;6.874;2023-04-29T01:25:44;101089.25;;;9.55;100.00
51229;BME280;37304;52.216;6.874;2023-04-29T01:36:17;101094.41;;;9.56;100.00
51229;BME280;37304;52.216;6.874;2023-04-29T01:46:31;101091.03;;;9.50;100.00
51229;BME280;37304;52.216;6.874;2023-04-29T01:51:32;101098.75;;;9.54;100.00
51229;BME280;37304;52.216;6.874;2023-04-29T01:56:33;101101.38;;;9.51;100.00
51229;BME280;37304;52.216;6.874;2023-04-29T02:01:34;101103.16;;;9.47;100.00
51229;BME280;37304;52.216;6.874;2023-04-29T02:06:34;101105.75;;;9.47;100.00
51229;BME280;37304;52.216;6.874;2023-04-29T02:11:34;101117.88;;;9.44;100.00
51229;BME280;37304;52.216;6.874;2023-04-29T02:16:35;101126.56;;;9.37;100.00
51229;BME280;37304;52.216;6.874;2023-04-29T02:21:35;101134.34;;;9.37;100.00
51229;BME280;37304;52.216;6.874;2023-04-29T02:26:35;101137.81;;;9.36;100.00
51229;BME280;37304;52.216;6.874;2023-04-29T02:31:37;101142.16;;;9.33;100.00
51229;BME280;37304;52.216;6.874;2023-04-29T02:36:37;101153.44;;;9.22;100.00
51229;BME280;37304;52.216;6.874;2023-04-29T02:41:38;101154.34;;;9.19;100.00
51229;BME280;37304;52.216;6.874;2023-04-29T02:46:38;101148.31;;;9.15;100.00
51229;BME280;37304;52.216;6.874;2023-04-29T02:51:40;101149.25;;;9.03;100.00
51229;BME280;37304;52.216;6.874;2023-04-29T02:56:41;101163.94;;;9.00;100.00
51229;BME280;37304;52.216;6.874;2023-04-29T03:01:42;101159.66;;;8.94;100.00
51229;BME280;37304;52.216;6.874;2023-04-29T03:06:42;101178.69;;;8.96;100.00
51229;BME280;37304;52.216;6.874;2023-04-29T03:11:42;101174.34;;;8.89;100.00
51229;BME280;37304;52.216;6.874;2023-04-29T03:16:43;101179.56;;;8.91;100.00
51229;BME280;37304;52.216;6.874;2023-04-29T03:21:46;101185.66;;;8.76;100.00
51229;BME280;37304;52.216;6.874;2023-04-29T03:26:46;101204.63;;;8.81;100.00
51229;BME280;37304;52.216;6.874;2023-04-29T03:31:46;101206.38;;;8.72;100.00
51229;BME280;37304;52.216;6.874;2023-04-29T03:36:47;101192.59;;;8.69;100.00
51229;BME280;37304;52.216;6.874;2023-04-29T03:41:47;101190.84;;;8.76;100.00
51229;BME280;37304;52.216;6.874;2023-04-29T03:46:47;101200.34;;;8.73;100.00
51229;BME280;37304;52.216;6.874;2023-04-29T03:51:47;101210.75;;;8.69;100.00
51229;BME280;37304;52.216;6.874;2023-04-29T03:56:48;101205.56;;;8.63;100.00
51229;BME280;37304;52.216;6.874;2023-04-29T04:01:48;101220.25;;;8.56;100.00
51229;BME280;37304;52.216;6.874;2023-04-29T04:06:48;101226.31;;;8.58;100.00
51229;BME280;37304;52.216;6.874;2023-04-29T04:11:50;101229.75;;;8.58;100.00
51229;BME280;37304;52.216;6.874;2023-04-29T04:16:51;101240.97;;;8.62;100.00
51229;BME280;37304;52.216;6.874;2023-04-29T04:21:51;101245.28;;;8.55;100.00
51229;BME280;37304;52.216;6.874;2023-04-29T04:26:51;101258.25;;;8.51;100.00
51229;BME280;37304;52.216;6.874;2023-04-29T04:31:51;101259.97;;;8.56;100.00
51229;BME280;37304;52.216;6.874;2023-04-29T04:36:52;101266.03;;;8.52;100.00
51229;BME280;37304;52.216;6.874;2023-04-29T04:41:52;101272.09;;;8.50;100.00
51229;BME280;37304;52.216;6.874;2023-04-29T04:46:52;101281.53;;;8.43;100.00
51229;BME280;37304;52.216;6.874;2023-04-29T04:51:53;101280.69;;;8.56;100.00
51229;BME280;37304;52.216;6.874;2023-04-29T04:56:54;101285.00;;;8.48;100.00
51229;BME280;37304;52.216;6.874;2023-04-29T05:01:54;101297.09;;;8.49;100.00
51229;BME280;37304;52.216;6.874;2023-04-29T05:06:55;101304.00;;;8.49;100.00
51229;BME280;37304;52.216;6.874;2023-04-29T05:11:55;101313.53;;;8.50;100.00
51229;BME280;37304;52.216;6.874;2023-04-29T05:16:59;101317.81;;;8.41;100.00
51229;BME280;37304;52.216;6.874;2023-04-29T05:21:59;101319.53;;;8.35;100.00
51229;BME280;37304;52.216;6.874;2023-04-29T05:26:59;101334.22;;;8.45;100.00
51229;BME280;37304;52.216;6.874;2023-04-29T05:32:00;101334.22;;;8.37;100.00
51229;BME280;37304;52.216;6.874;2023-04-29T05:37:00;101340.25;;;8.38;100.00
51229;BME280;37304;52.216;6.874;2023-04-29T05:42:01;101343.69;;;8.40;100.00
51229;BME280;37304;52.216;6.874;2023-04-29T05:47:02;101353.22;;;8.36;100.00
51229;BME280;37304;52.216;6.874;2023-04-29T05:52:02;101354.94;;;8.48;100.00
51229;BME280;37304;52.216;6.874;2023-04-29T05:57:05;101367.88;;;8.48;100.00
51229;BME280;37304;52.216;6.874;2023-04-29T06:02:06;101373.09;;;8.51;100.00
51229;BME280;37304;52.216;6.874;2023-04-29T06:07:06;101384.34;;;8.52;100.00
51229;BME280;37304;52.216;6.874;2023-04-29T06:12:08;101384.34;;;8.52;100.00
51229;BME280;37304;52.216;6.874;2023-04-29T06:17:10;101392.94;;;8.55;100.00
51229;BME280;37304;52.216;6.874;2023-04-29T06:22:11;101399.03;;;8.64;100.00
51229;BME280;37304;52.216;6.874;2023-04-29T06:27:11;101403.34;;;8.63;100.00
51229;BME280;37304;52.216;6.874;2023-04-29T06:32:11;101416.31;;;8.68;100.00
51229;BME280;37304;52.216;6.874;2023-04-29T06:37:13;101417.16;;;8.74;100.00
51229;BME280;37304;52.216;6.874;2023-04-29T06:42:13;101422.34;;;8.70;100.00
51229;BME280;37304;52.216;6.874;2023-04-29T06:47:13;101426.66;;;8.71;100.00
51229;BME280;37304;52.216;6.874;2023-04-29T06:52:14;101434.44;;;8.88;100.00
51229;BME280;37304;52.216;6.874;2023-04-29T06:57:14;101445.66;;;8.90;100.00
51229;BME280;37304;52.216;6.874;2023-04-29T07:02:15;101450.84;;;9.01;100.00
51229;BME280;37304;52.216;6.874;2023-04-29T07:07:15;101454.31;;;9.03;100.00
51229;BME280;37304;52.216;6.874;2023-04-29T07:12:17;101466.41;;;9.04;100.00
51229;BME280;37304;52.216;6.874;2023-04-29T07:17:17;101462.97;;;9.13;100.00
51229;BME280;37304;52.216;6.874;2023-04-29T07:22:17;101471.59;;;9.21;100.00
51229;BME280;37304;52.216;6.874;2023-04-29T07:27:18;101475.91;;;9.31;100.00
51229;BME280;37304;52.216;6.874;2023-04-29T07:32:18;101475.84;;;9.50;100.00
51229;BME280;37304;52.216;6.874;2023-04-29T07:37:19;101484.50;;;9.63;100.00
51229;BME280;37304;52.216;6.874;2023-04-29T07:42:19;101490.53;;;9.70;100.00
51229;BME280;37304;52.216;6.874;2023-04-29T07:47:20;101497.47;;;9.71;100.00
51229;BME280;37304;52.216;6.874;2023-04-29T07:52:20;101506.97;;;9.72;100.00
51229;BME280;37304;52.216;6.874;2023-04-29T07:57:21;101518.19;;;9.80;100.00
51229;BME280;37304;52.216;6.874;2023-04-29T08:02:21;101521.66;;;9.85;100.00
51229;BME280;37304;52.216;6.874;2023-04-29T08:07:22;101533.75;;;9.97;100.00
51229;BME280;37304;52.216;6.874;2023-04-29T08:12:22;101543.13;;;10.29;100.00
51229;BME280;37304;52.216;6.874;2023-04-29T08:17:23;101551.75;;;10.45;100.00
51229;BME280;37304;52.216;6.874;2023-04-29T08:22:23;101554.34;;;10.47;100.00
51229;BME280;37304;52.216;6.874;2023-04-29T08:27:23;101556.88;;;10.61;100.00
51229;BME280;37304;52.216;6.874;2023-04-29T08:32:24;101561.00;;;10.99;100.00
51229;BME280;37304;52.216;6.874;2023-04-29T08:37:24;101561.88;;;10.92;100.00
51229;BME280;37304;52.216;6.874;2023-04-29T08:42:36;101560.94;;;11.07;100.00
51229;BME280;37304;52.216;6.874;2023-04-29T08:47:37;101570.22;;;11.38;100.00
51229;BME280;37304;52.216;6.874;2023-04-29T08:52:37;101579.09;;;11.13;100.00
51229;BME280;37304;52.216;6.874;2023-04-29T08:57:39;101574.59;;;11.37;100.00
51229;BME280;37304;52.216;6.874;2023-04-29T09:02:47;101575.88;;;11.86;100.00
51229;BME280;37304;52.216;6.874;2023-04-29T09:07:50;101579.81;;;12.92;100.00
51229;BME280;37304;52.216;6.874;2023-04-29T09:12:50;101580.13;;;12.72;100.00
51229;BME280;37304;52.216;6.874;2023-04-29T09:17:51;101580.81;;;12.81;100.00
51229;BME280;37304;52.216;6.874;2023-04-29T09:22:56;101579.47;;;14.60;100.00
51229;BME280;37304;52.216;6.874;2023-04-29T09:27:57;101587.66;;;15.23;100.00
51229;BME280;37304;52.216;6.874;2023-04-29T09:33:08;101592.13;;;15.89;100.00
51229;BME280;37304;52.216;6.874;2023-04-29T09:38:13;101606.69;;;16.00;100.00
51229;BME280;37304;52.216;6.874;2023-04-29T09:43:15;101599.22;;;16.48;100.00
51229;BME280;37304;52.216;6.874;2023-04-29T09:48:17;101610.03;;;15.71;100.00
51229;BME280;37304;52.216;6.874;2023-04-29T09:53:28;101598.25;;;15.89;100.00
51229;BME280;37304;52.216;6.874;2023-04-29T09:58:30;101596.94;;;17.76;100.00
51229;BME280;37304;52.216;6.874;2023-04-29T10:03:36;101614.50;;;16.64;100.00
51229;BME280;37304;52.216;6.874;2023-04-29T10:08:38;101602.44;;;17.16;100.00
51229;BME280;37304;52.216;6.874;2023-04-29T10:13:41;101604.56;;;18.10;100.00
51229;BME280;37304;52.216;6.874;2023-04-29T10:18:48;101615.13;;;16.72;100.00
51229;BME280;37304;52.216;6.874;2023-04-29T10:23:51;101604.13;;;18.46;100.00
51229;BME280;37304;52.216;6.874;2023-04-29T10:28:55;101593.38;;;19.41;100.00
51229;BME280;37304;52.216;6.874;2023-04-29T10:33:57;101586.38;;;21.17;100.00
51229;BME280;37304;52.216;6.874;2023-04-29T10:38:59;101600.94;;;20.70;100.00
51229;BME280;37304;52.216;6.874;2023-04-29T10:44:01;101598.22;;;17.90;100.00
51229;BME280;37304;52.216;6.874;2023-04-29T10:49:04;101609.78;;;16.77;100.00
51229;BME280;37304;52.216;6.874;2023-04-29T10:54:08;101609.63;;;15.86;100.00
51229;BME280;37304;52.216;6.874;2023-04-29T10:59:14;101607.81;;;15.90;100.00
51229;BME280;37304;52.216;6.874;2023-04-29T11:04:16;101611.47;;;16.18;100.00
51229;BME280;37304;52.216;6.874;2023-04-29T11:14:28;101600.75;;;17.93;100.00
51229;BME280;37304;52.216;6.874;2023-04-29T11:19:34;101604.97;;;17.20;100.00
51229;BME280;37304;52.216;6.874;2023-04-29T11:24:35;101611.47;;;17.61;100.00
51229;BME280;37304;52.216;6.874;2023-04-29T11:29:36;101609.44;;;16.57;100.00
51229;BME280;37304;52.216;6.874;2023-04-29T11:34:39;101612.16;;;16.24;100.00
51229;BME280;37304;52.216;6.874;2023-04-29T11:39:40;101624.84;;;15.72;100.00
51229;BME280;37304;52.216;6.874;2023-04-29T11:44:44;101635.91;;;15.12;100.00
51229;BME280;37304;52.216;6.874;2023-04-29T11:49:44;101631.94;;;15.32;100.00
51229;BME280;37304;52.216;6.874;2023-04-29T11:54:46;101634.66;;;15.29;100.00
51229;BME280;37304;52.216;6.874;2023-04-29T11:59:46;101637.72;;;15.09;100.00
51229;BME280;37304;52.216;6.874;2023-04-29T12:04:49;101634.34;;;15.78;100.00
51229;BME280;37304;52.216;6.874;2023-04-29T12:09:50;101623.25;;;18.27;100.00
51229;BME280;37304;52.216;6.874;2023-04-29T12:14:56;101609.19;;;18.51;100.00
51229;BME280;37304;52.216;6.874;2023-04-29T12:19:57;101612.00;;;20.00;100.00
51229;BME280;37304;52.216;6.874;2023-04-29T12:25:04;101612.94;;;17.96;96.22
51229;BME280;37304;52.216;6.874;2023-04-29T12:30:06;101624.34;;;17.42;100.00
51229;BME280;37304;52.216;6.874;2023-04-29T12:35:15;101627.94;;;16.83;100.00
51229;BME280;37304;52.216;6.874;2023-04-29T12:40:16;101619.84;;;18.47;100.00
51229;BME280;37304;52.216;6.874;2023-04-29T12:45:31;101609.50;;;18.89;99.23
51229;BME280;37304;52.216;6.874;2023-04-29T12:50:35;101610.31;;;19.77;92.86
51229;BME280;37304;52.216;6.874;2023-04-29T12:55:37;101601.44;;;19.59;85.14
51229;BME280;37304;52.216;6.874;2023-04-29T13:00:38;101604.66;;;19.86;90.32
51229;BME280;37304;52.216;6.874;2023-04-29T13:05:38;101608.66;;;20.16;88.84
51229;BME280;37304;52.216;6.874;2023-04-29T13:10:39;101603.28;;;20.95;82.63
51229;BME280;37304;52.216;6.874;2023-04-29T13:15:40;101606.78;;;20.39;80.08
51229;BME280;37304;52.216;6.874;2023-04-29T13:20:42;101605.06;;;19.56;80.03
51229;BME280;37304;52.216;6.874;2023-04-29T13:25:44;101610.16;;;19.61;84.49
51229;BME280;37304;52.216;6.874;2023-04-29T13:30:45;101609.94;;;19.65;80.49
51229;BME280;37304;52.216;6.874;2023-04-29T13:35:47;101611.50;;;20.89;79.87
51229;BME280;37304;52.216;6.874;2023-04-29T13:40:47;101595.84;;;21.21;76.33
51229;BME280;37304;52.216;6.874;2023-04-29T13:45:48;101609.59;;;18.63;83.70
51229;BME280;37304;52.216;6.874;2023-04-29T13:50:54;101608.66;;;20.16;80.68
51229;BME280;37304;52.216;6.874;2023-04-29T13:55:54;101615.69;;;18.42;81.73
51229;BME280;37304;52.216;6.874;2023-04-29T14:01:05;101615.03;;;17.86;86.86
51229;BME280;37304;52.216;6.874;2023-04-29T14:06:05;101622.91;;;17.34;89.51
51229;BME280;37304;52.216;6.874;2023-04-29T14:11:07;101634.47;;;16.69;93.42
51229;BME280;37304;52.216;6.874;2023-04-29T14:16:08;101641.47;;;16.39;97.50
51229;BME280;37304;52.216;6.874;2023-04-29T14:21:08;101636.41;;;15.99;98.58
51229;BME280;37304;52.216;6.874;2023-04-29T14:26:10;101646.38;;;17.11;98.65
51229;BME280;37304;52.216;6.874;2023-04-29T14:31:10;101639.78;;;16.98;97.97
51229;BME280;37304;52.216;6.874;2023-04-29T14:36:12;101653.28;;;16.22;93.59
51229;BME280;37304;52.216;6.874;2023-04-29T14:41:13;101655.47;;;16.06;100.00
51229;BME280;37304;52.216;6.874;2023-04-29T14:46:13;101670.81;;;15.85;100.00
51229;BME280;37304;52.216;6.874;2023-04-29T14:51:13;101669.47;;;15.70;100.00
51229;BME280;37304;52.216;6.874;2023-04-29T14:56:18;101670.81;;;16.52;99.26
51229;BME280;37304;52.216;6.874;2023-04-29T15:01:18;101663.47;;;17.25;93.73
51229;BME280;37304;52.216;6.874;2023-04-29T15:06:19;101672.22;;;16.34;92.87
51229;BME280;37304;52.216;6.874;2023-04-29T15:11:19;101674.13;;;16.60;95.80
51229;BME280;37304;52.216;6.874;2023-04-29T15:16:20;101664.09;;;16.73;90.96
51229;BME280;37304;52.216;6.874;2023-04-29T15:21:21;101665.19;;;17.26;90.07
51229;BME280;37304;52.216;6.874;2023-04-29T15:26:21;101670.91;;;17.10;88.08
51229;BME280;37304;52.216;6.874;2023-04-29T15:31:22;101671.88;;;16.76;88.39
51229;BME280;37304;52.216;6.874;2023-04-29T15:36:27;101670.44;;;16.34;90.10
51229;BME280;37304;52.216;6.874;2023-04-29T15:41:29;101677.28;;;16.07;92.11
51229;BME280;37304;52.216;6.874;2023-04-29T15:46:30;101679.41;;;15.94;95.28
51229;BME280;37304;52.216;6.874;2023-04-29T15:51:31;101689.84;;;15.59;96.00
51229;BME280;37304;52.216;6.874;2023-04-29T15:56:32;101689.19;;;15.48;98.33
51229;BME280;37304;52.216;6.874;2023-04-29T16:01:32;101680.44;;;15.50;97.17
51229;BME280;37304;52.216;6.874;2023-04-29T16:06:32;101692.66;;;15.50;95.76
51229;BME280;37304;52.216;6.874;2023-04-29T16:11:33;101699.44;;;15.19;100.00
51229;BME280;37304;52.216;6.874;2023-04-29T16:16:33;101702.72;;;15.31;100.00
51229;BME280;37304;52.216;6.874;2023-04-29T16:21:33;101705.22;;;15.35;100.00
51229;BME280;37304;52.216;6.874;2023-04-29T16:26:34;101702.31;;;15.48;100.00
51229;BME280;37304;52.216;6.874;2023-04-29T16:31:35;101715.97;;;15.21;100.00
51229;BME280;37304;52.216;6.874;2023-04-29T16:36:36;101714.88;;;14.92;98.36
51229;BME280;37304;52.216;6.874;2023-04-29T16:41:36;101717.97;;;14.67;97.51
51229;BME280;37304;52.216;6.874;2023-04-29T16:46:37;101722.75;;;14.45;99.06
51229;BME280;37304;52.216;6.874;2023-04-29T16:51:37;101729.06;;;14.33;99.78
51229;BME280;37304;52.216;6.874;2023-04-29T16:56:37;101723.09;;;14.26;100.00
51229;BME280;37304;52.216;6.874;2023-04-29T17:01:38;101726.66;;;14.19;100.00
51229;BME280;37304;52.216;6.874;2023-04-29T17:06:39;101731.06;;;14.19;100.00
51229;BME280;37304;52.216;6.874;2023-04-29T17:11:40;101739.22;;;14.00;100.00
51229;BME280;37304;52.216;6.874;2023-04-29T17:16:40;101738.44;;;13.95;100.00
51229;BME280;37304;52.216;6.874;2023-04-29T17:21:40;101750.91;;;13.76;100.00
51229;BME280;37304;52.216;6.874;2023-04-29T17:26:41;101749.44;;;13.59;100.00
51229;BME280;37304;52.216;6.874;2023-04-29T17:31:41;101750.28;;;13.58;100.00
51229;BME280;37304;52.216;6.874;2023-04-29T17:36:45;101752.25;;;13.44;100.00
51229;BME280;37304;52.216;6.874;2023-04-29T17:41:46;101754.03;;;13.40;100.00
51229;BME280;37304;52.216;6.874;2023-04-29T17:46:47;101761.16;;;13.27;100.00
51229;BME280;37304;52.216;6.874;2023-04-29T17:51:47;101767.34;;;13.18;100.00
51229;BME280;37304;52.216;6.874;2023-04-29T17:56:48;101763.97;;;13.11;100.00
51229;BME280;37304;52.216;6.874;2023-04-29T18:01:48;101772.78;;;13.00;100.00
51229;BME280;37304;52.216;6.874;2023-04-29T18:06:48;101774.63;;;12.91;100.00
51229;BME280;37304;52.216;6.874;2023-04-29T18:11:49;101780.00;;;12.77;100.00
51229;BME280;37304;52.216;6.874;2023-04-29T18:16:49;101793.22;;;12.59;100.00
51229;BME280;37304;52.216;6.874;2023-04-29T18:21:50;101802.97;;;12.40;100.00
51229;BME280;37304;52.216;6.874;2023-04-29T18:26:51;101810.88;;;12.26;100.00
51229;BME280;37304;52.216;6.874;2023-04-29T18:31:52;101808.44;;;12.04;100.00
51229;BME280;37304;52.216;6.874;2023-04-29T18:36:53;101823.31;;;11.82;100.00
51229;BME280;37304;52.216;6.874;2023-04-29T18:41:54;101819.94;;;11.72;100.00
51229;BME280;37304;52.216;6.874;2023-04-29T18:46:55;101824.34;;;11.54;100.00
51229;BME280;37304;52.216;6.874;2023-04-29T18:51:55;101827.91;;;11.39;100.00
51229;BME280;37304;52.216;6.874;2023-04-29T18:56:57;101835.75;;;11.22;100.00
51229;BME280;37304;52.216;6.874;2023-04-29T19:01:57;101845.34;;;11.03;100.00
51229;BME280;37304;52.216;6.874;2023-04-29T19:06:58;101847.09;;;10.91;100.00
51229;BME280;37304;52.216;6.874;2023-04-29T19:12:00;101861.00;;;10.84;100.00
51229;BME280;37304;52.216;6.874;2023-04-29T19:17:02;101874.88;;;10.61;100.00
51229;BME280;37304;52.216;6.874;2023-04-29T19:22:03;101881.78;;;10.53;100.00
51229;BME280;37304;52.216;6.874;2023-04-29T19:27:04;101882.63;;;10.37;100.00
51229;BME280;37304;52.216;6.874;2023-04-29T19:32:06;101885.22;;;10.29;100.00
51229;BME280;37304;52.216;6.874;2023-04-29T19:37:07;101892.97;;;10.13;100.00
51229;BME280;37304;52.216;6.874;2023-04-29T19:42:08;101894.69;;;9.97;100.00
51229;BME280;37304;52.216;6.874;2023-04-29T19:47:08;101905.03;;;9.89;100.00
51229;BME280;37304;52.216;6.874;2023-04-29T19:52:10;101902.41;;;9.80;100.00
51229;BME280;37304;52.216;6.874;2023-04-29T19:57:11;101905.81;;;9.68;100.00
51229;BME280;37304;52.216;6.874;2023-04-29T20:02:11;101903.19;;;9.56;100.00
51229;BME280;37304;52.216;6.874;2023-04-29T20:07:12;101910.91;;;9.45;100.00
51229;BME280;37304;52.216;6.874;2023-04-29T20:12:12;101916.94;;;9.41;100.00
51229;BME280;37304;52.216;6.874;2023-04-29T20:17:12;101915.97;;;9.25;100.00
51229;BME280;37304;52.216;6.874;2023-04-29T20:22:13;101921.13;;;9.18;100.00
51229;BME280;37304;52.216;6.874;2023-04-29T20:27:13;101934.88;;;9.08;100.00
51229;BME280;37304;52.216;6.874;2023-04-29T20:32:14;101940.03;;;9.05;100.00
51229;BME280;37304;52.216;6.874;2023-04-29T20:37:15;101946.00;;;8.93;100.00
51229;BME280;37304;52.216;6.874;2023-04-29T20:42:15;101952.03;;;8.87;100.00
51229;BME280;37304;52.216;6.874;2023-04-29T20:47:16;101953.66;;;8.78;100.00
51229;BME280;37304;52.216;6.874;2023-04-29T20:52:17;101961.38;;;8.71;100.00
51229;BME280;37304;52.216;6.874;2023-04-29T20:57:17;101962.16;;;8.61;100.00
51229;BME280;37304;52.216;6.874;2023-04-29T21:02:17;101961.22;;;8.57;100.00
51229;BME280;37304;52.216;6.874;2023-04-29T21:07:18;101974.91;;;8.47;100.00
51229;BME280;37304;52.216;6.874;2023-04-29T21:12:18;101978.44;;;8.49;100.00
51229;BME280;37304;52.216;6.874;2023-04-29T21:17:18;101976.59;;;8.42;100.00
51229;BME280;37304;52.216;6.874;2023-04-29T21:22:18;101973.06;;;8.32;100.00
51229;BME280;37304;52.216;6.874;2023-04-29T21:27:19;101978.22;;;8.30;100.00
51229;BME280;37304;52.216;6.874;2023-04-29T21:32:19;101978.97;;;8.22;100.00
51229;BME280;37304;52.216;6.874;2023-04-29T21:37:20;101979.78;;;8.18;100.00
51229;BME280;37304;52.216;6.874;2023-04-29T21:42:21;101982.28;;;8.11;100.00
51229;BME280;37304;52.216;6.874;2023-04-29T21:47:24;101982.25;;;8.07;100.00
51229;BME280;37304;52.216;6.874;2023-04-29T21:52:26;101981.31;;;8.00;100.00
51229;BME280;37304;52.216;6.874;2023-04-29T21:57:26;101987.28;;;7.96;100.00
51229;BME280;37304;52.216;6.874;2023-04-29T22:02:26;101982.88;;;7.89;100.00
51229;BME280;37304;52.216;6.874;2023-04-29T22:07:36;101984.56;;;7.83;100.00
51229;BME280;37304;52.216;6.874;2023-04-29T22:12:37;102003.47;;;7.81;100.00
51229;BME280;37304;52.216;6.874;2023-04-29T22:17:37;102001.66;;;7.73;100.00
51229;BME280;37304;52.216;6.874;2023-04-29T22:22:38;102004.25;;;7.72;100.00
51229;BME280;37304;52.216;6.874;2023-04-29T22:27:38;102008.44;;;7.64;100.00
51229;BME280;37304;52.216;6.874;2023-04-29T22:32:39;102006.50;;;7.50;100.00
51229;BME280;37304;52.216;6.874;2023-04-29T22:37:39;102002.88;;;7.39;100.00
51229;BME280;37304;52.216;6.874;2023-04-29T22:42:40;102004.53;;;7.32;100.00
51229;BME280;37304;52.216;6.874;2023-04-29T22:47:41;102012.25;;;7.31;100.00
51229;BME280;37304;52.216;6.874;2023-04-29T22:52:42;102014.69;;;7.21;100.00
51229;BME280;37304;52.216;6.874;2023-04-29T22:57:42;102014.53;;;7.12;100.00
51229;BME280;37304;52.216;6.874;2023-04-29T23:02:45;102010.06;;;7.02;100.00
51229;BME280;37304;52.216;6.874;2023-04-29T23:07:46;102022.69;;;6.86;100.00
51229;BME280;37304;52.216;6.874;2023-04-29T23:12:46;102029.44;;;6.78;100.00
51229;BME280;37304;52.216;6.874;2023-04-29T23:17:46;102037.00;;;6.67;100.00
51229;BME280;37304;52.216;6.874;2023-04-29T23:22:47;102043.78;;;6.62;100.00
51229;BME280;37304;52.216;6.874;2023-04-29T23:27:47;102038.47;;;6.54;100.00
51229;BME280;37304;52.216;6.874;2023-04-29T23:32:48;102051.34;;;6.52;100.00
51229;BME280;37304;52.216;6.874;2023-04-29T23:37:48;102049.47;;;6.44;100.00
51229;BME280;37304;52.216;6.874;2023-04-29T23:42:48;102049.28;;;6.34;100.00
51229;BME280;37304;52.216;6.874;2023-04-29T23:47:49;102052.47;;;6.22;100.00
51229;BME280;37304;52.216;6.874;2023-04-29T23:52:49;102048.13;;;6.20;100.00
51229;BME280;37304;52.216;6.874;2023-04-29T23:57:50;102052.38;;;6.18;100.00
